Time,TemperatureF,DewpointF,PressureIn,WindDirection,WindDirectionDegrees,WindSpeedMPH,WindSpeedGustMPH,Humidity,HourlyPrecipIn,Conditions,Clouds,dailyrainin,SolarRadiationWatts/m^2,SoftwareType,DateUTC
2013-08-30 00:11:00,61.9,59.0,30.01,North,5,2.0,4.0,91,0.00,,,0.00,0,weatherlink.com 1.10,2013-08-30 07:11:00,
2013-08-30 00:26:00,61.7,59.0,30.01,NNE,20,1.0,3.0,91,0.00,,,0.00,0,weatherlink.com 1.10,2013-08-30 07:26:00,
2013-08-30 00:41:00,61.6,59.0,30.01,NNE,15,0.0,6.0,91,0.00,,,0.00,0,weatherlink.com 1.10,2013-08-30 07:41:00,
2013-08-30 00:56:00,61.5,59.0,30.01,NNE,16,3.0,4.0,91,0.00,,,0.00,0,weatherlink.com 1.10,2013-08-30 07:56:00,
2013-08-30 01:11:00,61.3,59.0,30.00,North,5,2.0,3.0,91,0.00,,,0.00,0,weatherlink.com 1.10,2013-08-30 08:11:00,
2013-08-30 01:26:00,61.1,59.0,30.00,NNE,22,2.0,5.0,91,0.00,,,0.00,0,weatherlink.com 1.10,2013-08-30 08:26:00,
2013-08-30 01:41:00,60.8,58.0,30.00,North,9,1.0,3.0,91,0.00,,,0.00,0,weatherlink.com 1.10,2013-08-30 08:41:00,
2013-08-30 01:56:00,60.6,58.0,30.00,NNE,15,2.0,4.0,91,0.00,,,0.00,0,weatherlink.com 1.10,2013-08-30 08:56:00,
2013-08-30 02:11:00,60.5,58.0,30.00,NNE,19,2.0,5.0,92,0.00,,,0.00,0,weatherlink.com 1.10,2013-08-30 09:11:00,
2013-08-30 02:26:00,60.5,58.0,30.00,North,350,4.0,5.0,91,0.00,,,0.00,0,weatherlink.com 1.10,2013-08-30 09:26:00,
2013-08-30 02:41:00,60.4,58.0,30.00,North,9,1.0,4.0,91,0.00,,,0.00,0,weatherlink.com 1.10,2013-08-30 09:41:00,
2013-08-30 02:56:00,60.2,58.0,30.00,North,350,3.0,4.0,92,0.00,,,0.00,0,weatherlink.com 1.10,2013-08-30 09:56:00,
2013-08-30 03:11:00,60.0,57.0,29.99,North,11,1.0,3.0,91,0.00,,,0.00,0,weatherlink.com 1.10,2013-08-30 10:11:00,
2013-08-30 03:26:00,59.7,57.0,29.99,NNE,27,1.0,4.0,92,0.00,,,0.00,0,weatherlink.com 1.10,2013-08-30 10:26:00,
2013-08-30 03:41:00,59.7,57.0,29.99,NNE,30,1.0,5.0,92,0.00,,,0.00,0,weatherlink.com 1.10,2013-08-30 10:41:00,
2013-08-30 03:56:00,59.5,57.0,29.99,NNE,22,2.0,7.0,92,0.00,,,0.00,0,weatherlink.com 1.10,2013-08-30 10:56:00,
2013-08-30 04:11:00,59.3,57.0,29.98,North,9,3.0,6.0,92,0.00,,,0.00,0,weatherlink.com 1.10,2013-08-30 11:11:00,
2013-08-30 04:26:00,59.1,57.0,29.99,NNE,19,2.0,3.0,92,0.00,,,0.00,0,weatherlink.com 1.10,2013-08-30 11:26:00,
2013-08-30 04:41:00,58.9,57.0,29.99,NE,42,2.0,5.0,92,0.00,,,0.00,0,weatherlink.com 1.10,2013-08-30 11:41:00,
2013-08-30 04:56:00,58.7,56.0,29.98,NNW,339,1.0,4.0,92,0.00,,,0.00,0,weatherlink.com 1.10,2013-08-30 11:56:00,
2013-08-30 05:11:00,58.6,56.0,29.99,NE,35,3.0,5.0,92,0.00,,,0.00,0,weatherlink.com 1.10,2013-08-30 12:11:00,
2013-08-30 05:26:00,58.4,56.0,29.99,NE,48,2.0,3.0,93,0.00,,,0.00,0,weatherlink.com 1.10,2013-08-30 12:26:00,
2013-08-30 05:41:00,58.2,56.0,29.99,NE,43,2.0,4.0,93,0.00,,,0.00,0,weatherlink.com 1.10,2013-08-30 12:41:00,
2013-08-30 05:57:00,57.9,56.0,29.99,NNE,30,1.0,4.0,93,0.00,,,0.00,0,weatherlink.com 1.10,2013-08-30 12:57:00,
2013-08-30 06:12:00,58.0,56.0,30.00,NE,38,2.0,4.0,93,0.00,,,0.00,0,weatherlink.com 1.10,2013-08-30 13:12:00,
2013-08-30 06:27:00,57.8,56.0,30.00,NE,43,0.0,3.0,93,0.00,,,0.00,0,weatherlink.com 1.10,2013-08-30 13:27:00,
2013-08-30 06:42:00,57.5,55.0,30.00,ENE,57,0.0,2.0,92,0.00,,,0.00,5,weatherlink.com 1.10,2013-08-30 13:42:00,
2013-08-30 06:57:00,56.8,54.0,30.01,NE,53,0.0,2.0,91,0.00,,,0.00,11,weatherlink.com 1.10,2013-08-30 13:57:00,
2013-08-30 07:12:00,56.4,55.0,30.01,NE,52,0.0,1.0,93,0.00,,,0.00,14,weatherlink.com 1.10,2013-08-30 14:12:00,
2013-08-30 07:27:00,56.9,55.0,30.01,NE,52,0.0,1.0,93,0.00,,,0.00,32,weatherlink.com 1.10,2013-08-30 14:27:00,
2013-08-30 07:42:00,58.2,56.0,30.01,NE,48,0.0,4.0,93,0.00,,,0.00,146,weatherlink.com 1.10,2013-08-30 14:42:00,
2013-08-30 07:57:00,59.2,57.0,30.01,NNE,22,2.0,4.0,91,0.00,,,0.00,197,weatherlink.com 1.10,2013-08-30 14:57:00,
2013-08-30 08:12:00,60.4,58.0,30.01,NNW,333,0.0,3.0,90,0.00,,,0.00,255,weatherlink.com 1.10,2013-08-30 15:12:00,
2013-08-30 08:27:00,61.6,58.0,30.01,North,5,0.0,3.0,89,0.00,,,0.00,308,weatherlink.com 1.10,2013-08-30 15:27:00,
2013-08-30 08:42:00,62.9,59.0,30.01,NNW,336,1.0,3.0,87,0.00,,,0.00,353,weatherlink.com 1.10,2013-08-30 15:42:00,
2013-08-30 08:57:00,64.7,60.0,30.01,WNW,300,1.0,4.0,85,0.00,,,0.00,404,weatherlink.com 1.10,2013-08-30 15:57:00,
2013-08-30 09:12:00,66.7,61.0,30.01,NNE,12,1.0,4.0,82,0.00,,,0.00,452,weatherlink.com 1.10,2013-08-30 16:12:00,
2013-08-30 09:27:00,68.7,62.0,30.01,NW,310,0.0,4.0,79,0.00,,,0.00,497,weatherlink.com 1.10,2013-08-30 16:27:00,
2013-08-30 09:42:00,70.5,62.0,30.01,WNW,303,3.0,4.0,74,0.00,,,0.00,541,weatherlink.com 1.10,2013-08-30 16:42:00,
2013-08-30 09:57:00,72.8,62.0,30.01,NNE,13,2.0,4.0,69,0.00,,,0.00,580,weatherlink.com 1.10,2013-08-30 16:57:00,
2013-08-30 10:12:00,74.6,62.0,30.01,NW,315,1.0,4.0,66,0.00,,,0.00,621,weatherlink.com 1.10,2013-08-30 17:12:00,
2013-08-30 10:28:00,76.5,62.0,30.00,ENE,74,2.0,4.0,61,0.00,,,0.00,659,weatherlink.com 1.10,2013-08-30 17:28:00,
2013-08-30 10:43:00,78.0,62.0,30.00,West,275,0.0,5.0,59,0.00,,,0.00,691,weatherlink.com 1.10,2013-08-30 17:43:00,
2013-08-30 10:58:00,77.5,62.0,30.00,NNE,32,3.0,7.0,59,0.00,,,0.00,721,weatherlink.com 1.10,2013-08-30 17:58:00,
2013-08-30 11:13:00,78.4,62.0,30.00,NNW,341,4.0,6.0,58,0.00,,,0.00,749,weatherlink.com 1.10,2013-08-30 18:13:00,
2013-08-30 11:28:00,79.8,62.0,30.00,NW,317,3.0,8.0,55,0.00,,,0.00,772,weatherlink.com 1.10,2013-08-30 18:28:00,
2013-08-30 11:43:00,81.0,62.0,30.00,NE,34,1.0,7.0,52,0.00,,,0.00,791,weatherlink.com 1.10,2013-08-30 18:43:00,
2013-08-30 11:58:00,82.5,61.0,30.00,North,360,0.0,5.0,49,0.00,,,0.00,810,weatherlink.com 1.10,2013-08-30 18:58:00,
2013-08-30 12:13:00,84.3,62.0,29.99,WNW,297,1.0,8.0,47,0.00,,,0.00,802,weatherlink.com 1.10,2013-08-30 19:13:00,
2013-08-30 12:28:00,84.7,62.0,29.98,NNW,345,5.0,8.0,46,0.00,,,0.00,35,weatherlink.com 1.10,2013-08-30 19:28:00,
2013-08-30 12:43:00,85.2,62.0,29.98,North,355,5.0,9.0,45,0.00,,,0.00,33,weatherlink.com 1.10,2013-08-30 19:43:00,
2013-08-30 12:58:00,84.8,61.0,29.98,NNW,327,7.0,9.0,45,0.00,,,0.00,33,weatherlink.com 1.10,2013-08-30 19:58:00,
2013-08-30 13:13:00,84.2,61.0,29.97,North,351,5.0,12.0,45,0.00,,,0.00,33,weatherlink.com 1.10,2013-08-30 20:13:00,
2013-08-30 13:28:00,84.2,61.0,29.97,NW,311,6.0,12.0,45,0.00,,,0.00,35,weatherlink.com 1.10,2013-08-30 20:28:00,
2013-08-30 13:43:00,83.2,61.0,29.97,NNE,26,5.0,12.0,47,0.00,,,0.00,35,weatherlink.com 1.10,2013-08-30 20:43:00,
2013-08-30 13:58:00,83.6,61.0,29.97,NNW,342,8.0,12.0,46,0.00,,,0.00,700,weatherlink.com 1.10,2013-08-30 20:58:00,
2013-08-30 14:13:00,82.5,61.0,29.96,NNW,327,8.0,13.0,48,0.00,,,0.00,200,weatherlink.com 1.10,2013-08-30 21:13:00,
2013-08-30 14:28:00,83.1,61.0,29.96,WNW,302,6.0,12.0,47,0.00,,,0.00,33,weatherlink.com 1.10,2013-08-30 21:28:00,
2013-08-30 14:43:00,83.6,61.0,29.95,North,355,4.0,11.0,47,0.00,,,0.00,33,weatherlink.com 1.10,2013-08-30 21:43:00,
2013-08-30 14:58:00,83.0,61.0,29.95,NW,319,3.0,14.0,48,0.00,,,0.00,130,weatherlink.com 1.10,2013-08-30 21:58:00,
2013-08-30 15:13:00,83.4,61.0,29.94,NW,319,8.0,10.0,47,0.00,,,0.00,700,weatherlink.com 1.10,2013-08-30 22:13:00,
2013-08-30 15:28:00,83.5,61.0,29.94,NW,315,8.0,10.0,47,0.00,,,0.00,666,weatherlink.com 1.10,2013-08-30 22:28:00,
2013-08-30 15:43:00,83.7,61.0,29.93,WNW,289,9.0,12.0,47,0.00,,,0.00,628,weatherlink.com 1.10,2013-08-30 22:43:00,
2013-08-30 15:58:00,82.1,61.0,29.93,NW,311,5.0,12.0,49,0.00,,,0.00,596,weatherlink.com 1.10,2013-08-30 22:58:00,
2013-08-30 16:13:00,82.0,61.0,29.93,WNW,290,10.0,13.0,49,0.00,,,0.00,555,weatherlink.com 1.10,2013-08-30 23:13:00,
2013-08-30 16:28:00,81.4,60.0,29.92,NW,325,7.0,12.0,49,0.00,,,0.00,515,weatherlink.com 1.10,2013-08-30 23:28:00,
2013-08-30 16:43:00,81.4,61.0,29.92,NNW,343,8.0,12.0,50,0.00,,,0.00,469,weatherlink.com 1.10,2013-08-30 23:43:00,
2013-08-30 16:59:00,80.2,60.0,29.91,NW,305,10.0,10.0,51,0.00,,,0.00,77,weatherlink.com 1.10,2013-08-30 23:59:00,
2013-08-30 17:14:00,79.1,60.0,29.91,WNW,300,4.0,10.0,52,0.00,,,0.00,30,weatherlink.com 1.10,2013-08-31 00:14:00,
2013-08-30 17:29:00,79.3,60.0,29.91,NNW,336,5.0,9.0,52,0.00,,,0.00,30,weatherlink.com 1.10,2013-08-31 00:29:00,
2013-08-30 17:44:00,78.2,60.0,29.90,NW,319,5.0,11.0,53,0.00,,,0.00,244,weatherlink.com 1.10,2013-08-31 00:44:00,
2013-08-30 17:59:00,76.9,59.0,29.90,North,5,3.0,8.0,55,0.00,,,0.00,190,weatherlink.com 1.10,2013-08-31 00:59:00,
2013-08-30 18:14:00,76.2,59.0,29.90,North,5,1.0,8.0,55,0.00,,,0.00,26,weatherlink.com 1.10,2013-08-31 01:14:00,
2013-08-30 18:29:00,75.5,59.0,29.90,North,360,4.0,7.0,56,0.00,,,0.00,128,weatherlink.com 1.10,2013-08-31 01:29:00,
2013-08-30 18:44:00,74.9,59.0,29.90,North,355,3.0,6.0,57,0.00,,,0.00,76,weatherlink.com 1.10,2013-08-31 01:44:00,
2013-08-30 18:59:00,73.0,58.0,29.90,NNW,328,6.0,9.0,60,0.00,,,0.00,37,weatherlink.com 1.10,2013-08-31 01:59:00,
2013-08-30 19:14:00,71.2,58.0,29.90,NW,311,3.0,7.0,63,0.00,,,0.00,16,weatherlink.com 1.10,2013-08-31 02:14:00,
2013-08-30 19:29:00,69.7,58.0,29.90,North,355,6.0,8.0,66,0.00,,,0.00,9,weatherlink.com 1.10,2013-08-31 02:29:00,
2013-08-30 19:44:00,68.9,57.0,29.90,WNW,298,3.0,7.0,67,0.00,,,0.00,0,weatherlink.com 1.10,2013-08-31 02:44:00,
2013-08-30 19:59:00,68.1,58.0,29.90,WNW,296,3.0,7.0,69,0.00,,,0.00,0,weatherlink.com 1.10,2013-08-31 02:59:00,
2013-08-30 20:14:00,67.2,57.0,29.90,NW,320,3.0,4.0,71,0.00,,,0.00,0,weatherlink.com 1.10,2013-08-31 03:14:00,
2013-08-30 20:29:00,66.6,57.0,29.90,NW,304,0.0,3.0,72,0.00,,,0.00,0,weatherlink.com 1.10,2013-08-31 03:29:00,
2013-08-30 20:44:00,66.1,57.0,29.91,NW,304,0.0,1.0,73,0.00,,,0.00,0,weatherlink.com 1.10,2013-08-31 03:44:00,
2013-08-30 20:59:00,65.7,57.0,29.91,WNW,302,1.0,2.0,74,0.00,,,0.00,0,weatherlink.com 1.10,2013-08-31 03:59:00,
2013-08-30 21:14:00,65.3,57.0,29.91,North,5,2.0,5.0,75,0.00,,,0.00,0,weatherlink.com 1.10,2013-08-31 04:14:00,
2013-08-30 21:29:00,64.8,57.0,29.92,NNE,17,3.0,5.0,76,0.00,,,0.00,0,weatherlink.com 1.10,2013-08-31 04:29:00,
2013-08-30 21:44:00,64.2,57.0,29.92,NNE,24,0.0,5.0,77,0.00,,,0.00,0,weatherlink.com 1.10,2013-08-31 04:44:00,
2013-08-30 21:59:00,63.6,57.0,29.92,NNE,23,3.0,6.0,78,0.00,,,0.00,0,weatherlink.com 1.10,2013-08-31 04:59:00,
2013-08-30 22:14:00,63.1,56.0,29.92,NE,42,1.0,4.0,78,0.00,,,0.00,0,weatherlink.com 1.10,2013-08-31 05:14:00,
2013-08-30 22:44:00,62.3,56.0,29.92,North,350,3.0,5.0,80,0.00,,,0.00,0,weatherlink.com 1.10,2013-08-31 05:44:00,
2013-08-30 22:59:00,62.1,56.0,29.92,NNE,15,4.0,6.0,80,0.00,,,0.00,0,weatherlink.com 1.10,2013-08-31 05:59:00,
2013-08-30 23:14:00,62.1,56.0,29.92,North,5,3.0,9.0,80,0.00,,,0.00,0,weatherlink.com 1.10,2013-08-31 06:14:00,
2013-08-30 23:29:00,62.0,55.0,29.92,North,355,3.0,8.0,79,0.00,,,0.00,0,weatherlink.com 1.10,2013-08-31 06:29:00,
2013-08-30 23:44:00,62.0,55.0,29.92,North,5,1.0,6.0,79,0.00,,,0.00,0,weatherlink.com 1.10,2013-08-31 06:44:00,
2013-08-30 23:59:00,61.9,55.0,29.92,North,11,4.0,7.0,79,0.00,,,0.00,0,weatherlink.com 1.10,2013-08-31 06:59:00,